createdAt,value
2017-07-08T00:00:55.269Z,50.7
2017-07-08T00:01:56.692Z,50.6
2017-07-08T00:02:58.141Z,50.5
2017-07-08T00:03:59.565Z,50.8
2017-07-08T00:05:01.009Z,50.9
2017-07-08T00:06:02.463Z,50.9
2017-07-08T00:07:03.864Z,50.9
2017-07-08T00:08:05.291Z,50.6
2017-07-08T00:09:06.723Z,50.6
2017-07-08T00:10:08.160Z,50.5
2017-07-08T00:11:09.585Z,50.5
2017-07-08T00:12:11.015Z,50.6
2017-07-08T00:13:12.439Z,50.5
2017-07-08T00:14:13.864Z,50.6
2017-07-08T00:15:15.300Z,50.8
2017-07-08T00:16:16.716Z,50.7
2017-07-08T00:17:18.141Z,50.7
2017-07-08T00:18:19.566Z,51.0
2017-07-08T00:19:20.990Z,50.6
2017-07-08T00:20:22.413Z,50.7
2017-07-08T00:21:23.834Z,50.7
2017-07-08T00:22:25.261Z,50.4
2017-07-08T00:23:26.686Z,51.3
2017-07-08T00:24:28.114Z,51.3
2017-07-08T00:25:29.544Z,51.3
2017-07-08T00:26:30.967Z,51.2
2017-07-08T00:27:32.398Z,51.3
2017-07-08T00:28:33.827Z,51.2
2017-07-08T00:29:35.260Z,51.4
2017-07-08T00:30:36.679Z,51.4
2017-07-08T00:31:38.104Z,51.3
2017-07-08T00:32:39.535Z,51.3
2017-07-08T00:33:40.961Z,51.3
2017-07-08T00:34:42.390Z,51.0
2017-07-08T00:35:43.813Z,51.2
2017-07-08T00:36:45.349Z,51.1
2017-07-08T00:37:46.784Z,51.2
2017-07-08T00:38:48.258Z,51.3
2017-07-08T00:39:49.676Z,51.0
2017-07-08T00:40:51.102Z,51.2
2017-07-08T00:41:52.523Z,51.0
2017-07-08T00:42:54.261Z,51.2
2017-07-08T00:43:55.687Z,50.9
2017-07-08T00:44:57.225Z,51.0
2017-07-08T00:45:58.655Z,51.1
2017-07-08T00:47:00.080Z,51.1
2017-07-08T00:48:01.515Z,51.1
2017-07-08T00:49:03.103Z,51.0
2017-07-08T00:50:04.530Z,51.1
2017-07-08T00:51:05.958Z,51.1
2017-07-08T00:52:07.390Z,51.1
2017-07-08T00:53:08.920Z,51.3
2017-07-08T00:54:10.352Z,51.3
2017-07-08T00:55:11.775Z,51.3
2017-07-08T00:56:13.204Z,51.0
2017-07-08T00:57:14.629Z,51.2
2017-07-08T00:58:16.054Z,51.0
2017-07-08T00:59:17.484Z,50.9
2017-07-08T01:00:18.913Z,51.0
2017-07-08T01:01:20.340Z,51.2
2017-07-08T01:02:21.765Z,51.0
2017-07-08T01:03:23.194Z,51.1
2017-07-08T01:04:24.615Z,51.3
2017-07-08T01:05:26.043Z,50.9
2017-07-08T01:06:27.503Z,50.9
2017-07-08T01:07:28.928Z,50.9
2017-07-08T01:08:30.359Z,51.2
2017-07-08T01:09:31.779Z,51.4
2017-07-08T01:10:33.207Z,51.4
2017-07-08T01:11:34.630Z,51.4
2017-07-08T01:12:36.133Z,51.0
2017-07-08T01:13:37.548Z,51.3
2017-07-08T01:14:38.969Z,51.1
2017-07-08T01:15:40.394Z,51.0
2017-07-08T01:16:41.815Z,51.0
2017-07-08T01:17:43.250Z,51.5
2017-07-08T01:18:44.675Z,51.6
2017-07-08T01:19:46.099Z,51.2
2017-07-08T01:20:47.524Z,51.5
2017-07-08T01:21:48.963Z,51.5
2017-07-08T01:22:50.431Z,51.3
2017-07-08T01:23:51.852Z,51.4
2017-07-08T01:24:53.311Z,51.2
2017-07-08T01:25:54.737Z,51.5
2017-07-08T01:26:56.161Z,51.4
2017-07-08T01:27:57.583Z,51.2
2017-07-08T01:28:59.012Z,51.4
2017-07-08T01:30:00.463Z,51.6
2017-07-08T01:31:01.884Z,51.4
2017-07-08T01:32:03.343Z,51.0
2017-07-08T01:33:04.767Z,51.2
2017-07-08T01:34:06.201Z,51.1
2017-07-08T01:35:07.622Z,51.4
2017-07-08T01:36:09.063Z,51.5
2017-07-08T01:37:10.488Z,51.7
2017-07-08T01:38:11.962Z,51.7
2017-07-08T01:39:13.334Z,51.8
2017-07-08T01:40:14.757Z,51.6
2017-07-08T01:41:16.180Z,52.0
2017-07-08T01:42:17.608Z,51.5
2017-07-08T01:43:19.044Z,51.5
2017-07-08T01:44:20.465Z,51.5
2017-07-08T01:45:21.890Z,51.9
2017-07-08T01:46:23.321Z,51.4
2017-07-08T01:47:24.758Z,51.5
2017-07-08T01:48:26.185Z,51.5
2017-07-08T01:49:27.610Z,52.0
2017-07-08T01:50:29.037Z,51.6
2017-07-08T01:51:30.472Z,52.0
2017-07-08T01:52:31.905Z,51.7
2017-07-08T01:53:33.327Z,51.7
2017-07-08T01:54:34.749Z,51.9
2017-07-08T01:55:36.180Z,51.7
2017-07-08T01:56:37.605Z,51.7
2017-07-08T01:57:39.029Z,51.8
2017-07-08T01:58:40.469Z,51.6
2017-07-08T01:59:41.883Z,51.7
2017-07-08T02:00:43.302Z,51.7
2017-07-08T02:01:44.745Z,51.5
2017-07-08T02:02:46.178Z,51.8
2017-07-08T02:03:47.602Z,51.8
2017-07-08T02:04:49.032Z,51.6
2017-07-08T02:05:50.465Z,51.8
2017-07-08T02:06:51.890Z,52.2
2017-07-08T02:07:53.315Z,52.1
2017-07-08T02:08:54.775Z,52.1
2017-07-08T02:09:56.201Z,52.2
2017-07-08T02:10:57.671Z,52.1
2017-07-08T02:11:59.097Z,51.7
2017-07-08T02:13:00.582Z,51.8
2017-07-08T02:14:01.946Z,51.9
2017-07-08T02:15:03.427Z,52.0
2017-07-08T02:16:05.127Z,52.0
2017-07-08T02:17:06.549Z,52.2
2017-07-08T02:18:07.979Z,52.2
2017-07-08T02:19:09.413Z,52.2
2017-07-08T02:20:10.839Z,52.1
2017-07-08T02:21:12.265Z,52.1
2017-07-08T02:22:13.699Z,52.0
2017-07-08T02:23:15.214Z,52.1
2017-07-08T02:24:16.630Z,52.3
2017-07-08T02:25:18.065Z,52.2
2017-07-08T02:26:19.481Z,51.9
2017-07-08T02:27:21.633Z,52.0
2017-07-08T02:28:23.055Z,51.8
2017-07-08T02:29:24.485Z,52.1
2017-07-08T02:30:25.928Z,52.3
2017-07-08T02:31:27.371Z,51.8
2017-07-08T02:32:28.795Z,52.2
2017-07-08T02:33:30.219Z,52.1
2017-07-08T02:34:31.660Z,52.0
2017-07-08T02:35:33.085Z,52.1
2017-07-08T02:36:34.520Z,51.7
2017-07-08T02:37:35.946Z,52.0
2017-07-08T02:38:37.375Z,52.2
2017-07-08T02:39:38.810Z,52.1
2017-07-08T02:40:40.237Z,51.9
2017-07-08T02:41:41.667Z,52.2
2017-07-08T02:42:43.090Z,52.3
2017-07-08T02:43:44.509Z,52.3
2017-07-08T02:44:45.929Z,52.3
2017-07-08T02:45:47.367Z,52.0
2017-07-08T02:46:48.793Z,51.7
2017-07-08T02:47:50.218Z,51.9
2017-07-08T02:48:51.657Z,52.3
2017-07-08T02:49:53.072Z,52.2
2017-07-08T02:50:54.499Z,52.3
2017-07-08T02:51:55.922Z,52.3
2017-07-08T02:52:57.349Z,52.2
2017-07-08T02:53:58.800Z,51.7
2017-07-08T02:55:00.223Z,52.3
2017-07-08T02:56:01.664Z,52.3
2017-07-08T02:57:03.222Z,52.2
2017-07-08T02:58:04.648Z,52.3
2017-07-08T02:59:06.080Z,52.3
2017-07-08T03:00:07.555Z,52.4
2017-07-08T03:01:08.945Z,52.4
2017-07-08T03:02:10.372Z,52.5
2017-07-08T03:03:11.797Z,52.4
2017-07-08T03:04:13.279Z,52.4
2017-07-08T03:05:14.718Z,52.3
2017-07-08T03:06:16.139Z,51.8
2017-07-08T03:07:17.574Z,52.4
2017-07-08T03:08:18.986Z,52.3
2017-07-08T03:09:20.408Z,52.3
2017-07-08T03:10:21.844Z,52.1
2017-07-08T03:11:23.264Z,52.5
2017-07-08T03:12:24.699Z,52.1
2017-07-08T03:13:26.125Z,52.3
2017-07-08T03:14:27.550Z,52.3
2017-07-08T03:15:28.980Z,52.4
2017-07-08T03:16:30.532Z,52.2
2017-07-08T03:17:31.852Z,52.3
2017-07-08T03:18:33.271Z,52.3
2017-07-08T03:19:34.711Z,52.0
2017-07-08T03:20:36.147Z,52.2
2017-07-08T03:21:37.564Z,52.3
2017-07-08T03:22:38.991Z,52.0
2017-07-08T03:23:40.418Z,52.4
2017-07-08T03:24:41.851Z,52.5
2017-07-08T03:25:43.276Z,52.4
2017-07-08T03:26:44.706Z,52.2
2017-07-08T03:27:46.131Z,52.2
2017-07-08T03:28:47.555Z,52.1
2017-07-08T03:29:48.986Z,51.8
2017-07-08T03:30:50.411Z,52.1
2017-07-08T03:31:51.835Z,52.3
2017-07-08T03:32:53.258Z,52.6
2017-07-08T03:33:54.688Z,52.3
2017-07-08T03:34:56.114Z,51.9
2017-07-08T03:35:57.542Z,52.4
2017-07-08T03:36:58.973Z,52.3
2017-07-08T03:38:00.398Z,52.2
2017-07-08T03:39:01.820Z,52.2
2017-07-08T03:40:03.374Z,52.2
2017-07-08T03:41:04.807Z,52.1
2017-07-08T03:42:06.234Z,52.4
2017-07-08T03:43:07.659Z,51.9
2017-07-08T03:44:09.157Z,52.4
2017-07-08T03:45:10.587Z,51.7
2017-07-08T03:46:12.025Z,52.0
2017-07-08T03:47:13.510Z,52.0
2017-07-08T03:48:14.886Z,51.9
2017-07-08T03:49:16.320Z,51.7
2017-07-08T03:50:17.752Z,52.2
2017-07-08T03:51:19.185Z,52.2
2017-07-08T03:52:20.626Z,52.1
2017-07-08T03:53:22.081Z,52.2
2017-07-08T03:54:23.504Z,51.7
2017-07-08T03:55:24.935Z,52.2
2017-07-08T03:56:26.359Z,52.0
2017-07-08T03:57:27.789Z,52.2
2017-07-08T03:58:29.287Z,52.2
2017-07-08T03:59:30.721Z,52.0
2017-07-08T04:00:32.172Z,52.4
2017-07-08T04:01:33.610Z,52.0
2017-07-08T04:02:35.063Z,52.0
2017-07-08T04:03:36.476Z,51.9
2017-07-08T04:04:37.904Z,52.0
2017-07-08T04:05:39.334Z,51.3
2017-07-08T04:06:40.765Z,51.6
2017-07-08T04:07:42.194Z,51.4
2017-07-08T04:08:43.623Z,51.5
2017-07-08T04:09:45.059Z,51.6
2017-07-08T04:10:46.496Z,51.5
2017-07-08T04:11:47.924Z,51.5
2017-07-08T04:12:49.350Z,51.1
2017-07-08T04:13:50.787Z,51.4
2017-07-08T04:14:52.225Z,51.2
2017-07-08T04:15:53.655Z,51.0
2017-07-08T04:16:55.074Z,51.0
2017-07-08T04:17:56.497Z,51.1
2017-07-08T04:18:57.925Z,51.0
2017-07-08T04:19:59.372Z,51.0
2017-07-08T04:21:00.813Z,51.1
2017-07-08T04:22:02.245Z,51.4
2017-07-08T04:23:03.748Z,51.1
2017-07-08T04:24:05.182Z,50.9
2017-07-08T04:25:06.606Z,51.1
2017-07-08T04:26:08.028Z,51.2
2017-07-08T04:27:09.456Z,51.0
2017-07-08T04:28:10.887Z,51.0
2017-07-08T04:29:12.321Z,51.0
2017-07-08T04:30:13.801Z,51.0
2017-07-08T04:31:15.225Z,51.3
2017-07-08T04:32:16.653Z,50.9
2017-07-08T04:33:18.078Z,51.1
2017-07-08T04:34:19.520Z,50.8
2017-07-08T04:35:20.967Z,51.3
2017-07-08T04:36:22.386Z,51.4
2017-07-08T04:37:23.808Z,51.1
2017-07-08T04:38:25.237Z,51.0
2017-07-08T04:39:26.662Z,50.9
2017-07-08T04:40:28.089Z,51.0
2017-07-08T04:41:29.519Z,50.9
2017-07-08T04:42:30.971Z,51.1
2017-07-08T04:43:32.405Z,51.0
2017-07-08T04:44:33.848Z,51.1
2017-07-08T04:45:35.275Z,51.3
2017-07-08T04:46:36.703Z,51.1
2017-07-08T04:47:38.130Z,51.0
2017-07-08T04:48:39.565Z,51.0
2017-07-08T04:49:41.010Z,51.3
2017-07-08T04:50:42.436Z,51.3
2017-07-08T04:51:43.862Z,50.8
2017-07-08T04:52:45.297Z,51.2
2017-07-08T04:53:46.727Z,51.2
2017-07-08T04:54:48.154Z,51.1
2017-07-08T04:55:49.587Z,51.1
2017-07-08T04:56:51.021Z,50.9
2017-07-08T04:57:52.453Z,51.0
2017-07-08T04:58:53.873Z,51.2
2017-07-08T04:59:55.299Z,51.0
2017-07-08T05:00:56.746Z,51.0
2017-07-08T05:01:58.179Z,51.1
2017-07-08T05:02:59.606Z,51.0
2017-07-08T05:04:01.042Z,51.0
2017-07-08T05:05:02.489Z,51.1
2017-07-08T05:06:03.928Z,51.4
2017-07-08T05:07:05.365Z,51.1
2017-07-08T05:08:06.794Z,51.0
2017-07-08T05:09:08.228Z,51.1
2017-07-08T05:10:09.650Z,50.9
2017-07-08T05:11:11.078Z,51.3
2017-07-08T05:12:12.505Z,51.4
2017-07-08T05:13:13.937Z,51.2
2017-07-08T05:14:15.365Z,51.3
2017-07-08T05:15:16.790Z,51.3
2017-07-08T05:16:18.242Z,51.1
2017-07-08T05:17:19.688Z,51.3
2017-07-08T05:18:21.121Z,51.4
2017-07-08T05:19:22.546Z,50.9
2017-07-08T05:20:23.981Z,51.0
2017-07-08T05:21:25.405Z,51.3
2017-07-08T05:22:26.837Z,51.1
2017-07-08T05:23:28.262Z,51.1
2017-07-08T05:24:29.694Z,51.2
2017-07-08T05:25:31.123Z,50.9
2017-07-08T05:26:32.584Z,50.5
2017-07-08T05:27:34.028Z,50.5
2017-07-08T05:28:35.458Z,50.6
2017-07-08T05:29:36.905Z,50.0
2017-07-08T05:30:38.337Z,49.8
2017-07-08T05:31:39.770Z,50.0
2017-07-08T05:32:41.209Z,48.8
2017-07-08T05:33:42.636Z,49.0
2017-07-08T05:34:44.064Z,49.0
2017-07-08T05:35:45.502Z,48.6
2017-07-08T05:36:46.932Z,47.8
2017-07-08T05:37:48.361Z,47.9
2017-07-08T05:38:49.814Z,48.4
2017-07-08T05:39:51.236Z,48.9
2017-07-08T05:40:52.697Z,49.0
2017-07-08T05:41:54.125Z,49.0
2017-07-08T05:42:55.547Z,48.2
2017-07-08T05:43:56.985Z,47.6
2017-07-08T05:44:58.441Z,46.6
2017-07-08T05:45:59.859Z,46.0
2017-07-08T05:47:01.293Z,45.3
2017-07-08T05:48:02.736Z,45.6
2017-07-08T05:49:04.206Z,45.3
2017-07-08T05:50:05.769Z,45.9
2017-07-08T05:51:07.204Z,46.6
2017-07-08T05:52:08.646Z,46.5
2017-07-08T05:53:10.085Z,46.8
2017-07-08T05:54:11.600Z,47.2
2017-07-08T05:55:13.051Z,47.3
2017-07-08T05:56:14.475Z,47.2
2017-07-08T05:57:15.962Z,47.0
2017-07-08T05:58:17.565Z,46.8
2017-07-08T05:59:19.007Z,46.8
2017-07-08T06:00:20.435Z,46.6
2017-07-08T06:01:21.880Z,46.7
2017-07-08T06:02:23.314Z,46.8
2017-07-08T06:03:25.025Z,46.6
2017-07-08T06:04:26.457Z,46.6
2017-07-08T06:05:27.907Z,46.6
2017-07-08T06:06:29.374Z,47.0
2017-07-08T06:07:30.831Z,47.0
2017-07-08T06:08:32.269Z,46.9
2017-07-08T06:09:33.703Z,47.1
2017-07-08T06:10:35.147Z,46.3
2017-07-08T06:11:36.581Z,46.1
2017-07-08T06:12:38.012Z,45.9
2017-07-08T06:13:39.495Z,45.3
2017-07-08T06:14:40.996Z,44.3
2017-07-08T06:15:42.446Z,44.1
2017-07-08T06:16:43.892Z,43.9
2017-07-08T06:17:45.328Z,43.5
2017-07-08T06:18:46.764Z,43.0
2017-07-08T06:19:48.217Z,42.9
2017-07-08T06:20:49.646Z,43.0
2017-07-08T06:21:51.091Z,43.0
2017-07-08T06:22:52.522Z,42.2
2017-07-08T06:23:53.971Z,41.6
2017-07-08T06:24:55.419Z,41.3
2017-07-08T06:25:56.874Z,42.0
2017-07-08T06:26:58.344Z,41.8
2017-07-08T06:27:59.801Z,42.5
2017-07-08T06:29:01.279Z,42.8
2017-07-08T06:30:02.721Z,43.3
2017-07-08T06:31:04.167Z,43.7
2017-07-08T06:32:05.601Z,43.8
2017-07-08T06:33:07.035Z,43.9
2017-07-08T06:34:08.470Z,44.0
2017-07-08T06:35:09.917Z,43.8
2017-07-08T06:36:11.346Z,44.1
2017-07-08T06:37:12.778Z,44.7
2017-07-08T06:38:14.225Z,44.2
2017-07-08T06:39:15.704Z,44.3
2017-07-08T06:40:17.145Z,43.8
2017-07-08T06:41:18.578Z,43.9
2017-07-08T06:42:20.080Z,43.6
2017-07-08T06:43:21.566Z,43.6
2017-07-08T06:44:22.991Z,43.7
2017-07-08T06:45:24.436Z,44.1
2017-07-08T06:46:25.864Z,43.6
2017-07-08T06:47:27.436Z,43.9
2017-07-08T06:48:28.888Z,43.9
2017-07-08T06:49:30.410Z,43.9
2017-07-08T06:50:31.851Z,43.9
2017-07-08T06:51:33.305Z,43.9
2017-07-08T06:52:34.748Z,43.9
2017-07-08T06:53:36.208Z,43.8
2017-07-08T06:54:37.646Z,43.7
2017-07-08T06:55:39.097Z,43.9
2017-07-08T06:56:40.550Z,43.8
2017-07-08T06:57:41.992Z,44.1
2017-07-08T06:58:43.453Z,43.8
2017-07-08T06:59:44.886Z,44.1
2017-07-08T07:00:46.325Z,44.0
2017-07-08T07:01:47.755Z,44.1
2017-07-08T07:02:49.209Z,44.0
2017-07-08T07:03:50.643Z,44.7
2017-07-08T07:04:52.134Z,44.4
2017-07-08T07:05:53.569Z,44.3
2017-07-08T07:06:55.012Z,44.1
2017-07-08T07:07:56.465Z,44.0
2017-07-08T07:08:58.043Z,44.0
2017-07-08T07:09:59.811Z,45.2
2017-07-08T07:11:01.520Z,49.2
2017-07-08T07:12:03.014Z,53.9
2017-07-08T07:13:04.438Z,58.8
2017-07-08T07:14:05.931Z,59.0
2017-07-08T07:15:07.367Z,59.2
2017-07-08T07:16:08.808Z,59.3
2017-07-08T07:17:10.255Z,60.0
2017-07-08T07:18:11.690Z,61.2
2017-07-08T07:19:13.139Z,62.1
2017-07-08T07:20:14.577Z,61.2
2017-07-08T07:21:16.033Z,62.1
2017-07-08T07:22:17.458Z,62.2
2017-07-08T07:23:18.996Z,61.0
2017-07-08T07:24:20.471Z,61.4
2017-07-08T07:25:21.900Z,61.9
2017-07-08T07:26:23.435Z,61.1
2017-07-08T07:27:24.890Z,59.5
2017-07-08T07:28:26.336Z,59.6
2017-07-08T07:29:27.809Z,59.8
2017-07-08T07:30:29.243Z,59.6
2017-07-08T07:31:30.760Z,60.4
2017-07-08T07:32:32.260Z,59.5
2017-07-08T07:33:33.819Z,60.2
2017-07-08T07:34:35.289Z,61.5
2017-07-08T07:35:36.777Z,59.4
2017-07-08T07:36:38.222Z,58.3
2017-07-08T07:37:39.664Z,57.9
2017-07-08T07:38:41.129Z,58.9
2017-07-08T07:39:42.562Z,58.8
2017-07-08T07:40:44.005Z,57.9
2017-07-08T07:41:45.463Z,58.3
2017-07-08T07:42:46.887Z,58.1
2017-07-08T07:43:48.364Z,58.2
2017-07-08T07:44:49.789Z,57.5
2017-07-08T07:45:51.230Z,56.3
2017-07-08T07:46:52.664Z,58.2
2017-07-08T07:47:54.094Z,58.8
2017-07-08T07:48:55.555Z,57.9
2017-07-08T07:49:56.986Z,59.7
2017-07-08T07:50:58.423Z,59.6
2017-07-08T07:51:59.862Z,59.8
2017-07-08T07:53:01.433Z,58.9
2017-07-08T07:54:02.945Z,55.4
2017-07-08T07:55:04.441Z,58.5
2017-07-08T07:56:05.868Z,58.4
2017-07-08T07:57:07.318Z,57.8
2017-07-08T07:58:08.766Z,57.6
2017-07-08T07:59:10.202Z,57.6
2017-07-08T08:00:11.640Z,57.0
2017-07-08T08:01:13.102Z,56.3
2017-07-08T08:02:14.540Z,55.9
2017-07-08T08:03:15.983Z,58.2
2017-07-08T08:04:17.420Z,59.6
2017-07-08T08:05:18.857Z,59.5
2017-07-08T08:06:20.282Z,58.2
2017-07-08T08:07:21.719Z,58.3
2017-07-08T08:08:23.179Z,56.8
2017-07-08T08:09:24.698Z,56.6
2017-07-08T08:10:26.151Z,56.2
2017-07-08T08:11:27.586Z,54.2
2017-07-08T08:12:29.033Z,53.7
2017-07-08T08:13:30.470Z,53.8
2017-07-08T08:14:31.901Z,52.7
2017-07-08T08:15:33.341Z,52.9
2017-07-08T08:16:34.853Z,53.2
2017-07-08T08:17:36.365Z,53.9
2017-07-08T08:18:37.870Z,55.0
2017-07-08T08:19:39.338Z,53.8
2017-07-08T08:20:40.781Z,54.2
2017-07-08T08:21:42.245Z,54.8
2017-07-08T08:22:43.703Z,55.8
2017-07-08T08:23:45.141Z,56.7
2017-07-08T08:24:46.741Z,57.9
2017-07-08T08:25:48.200Z,58.2
2017-07-08T08:26:49.693Z,57.0
2017-07-08T08:27:51.243Z,56.3
2017-07-08T08:28:52.692Z,56.1
2017-07-08T08:29:54.122Z,57.4
2017-07-08T08:30:55.562Z,57.3
2017-07-08T08:31:57.007Z,57.0
2017-07-08T08:32:58.529Z,56.1
2017-07-08T08:33:59.977Z,55.5
2017-07-08T08:35:01.681Z,56.7
2017-07-08T08:36:03.205Z,54.9
2017-07-08T08:37:04.662Z,55.5
2017-07-08T08:38:06.052Z,54.7
2017-07-08T08:39:07.537Z,55.4
2017-07-08T08:40:08.989Z,55.0
2017-07-08T08:41:10.457Z,53.2
2017-07-08T08:42:11.994Z,52.2
2017-07-08T08:43:13.434Z,51.7
2017-07-08T08:44:14.864Z,50.2
2017-07-08T08:45:16.305Z,50.4
2017-07-08T08:46:17.736Z,50.0
2017-07-08T08:47:19.174Z,49.4
2017-07-08T08:48:20.672Z,49.0
2017-07-08T08:49:22.132Z,49.2
2017-07-08T08:50:23.588Z,51.0
2017-07-08T08:51:25.103Z,50.9
2017-07-08T08:52:26.526Z,51.6
2017-07-08T08:53:27.950Z,49.0
2017-07-08T08:54:29.383Z,50.9
2017-07-08T08:55:30.802Z,49.5
2017-07-08T08:56:32.265Z,49.2
2017-07-08T08:57:33.707Z,48.9
2017-07-08T08:58:35.129Z,49.1
2017-07-08T08:59:36.768Z,50.8
2017-07-08T09:00:38.187Z,51.4
2017-07-08T09:01:39.617Z,49.9
2017-07-08T09:02:41.049Z,49.1
2017-07-08T09:03:42.481Z,48.0
2017-07-08T09:04:43.919Z,45.9
2017-07-08T09:05:45.410Z,45.2
2017-07-08T09:06:46.872Z,46.3
2017-07-08T09:07:48.300Z,46.6
2017-07-08T09:08:49.798Z,47.4
2017-07-08T09:09:51.222Z,48.0
2017-07-08T09:10:52.650Z,46.1
2017-07-08T09:11:54.091Z,45.0
2017-07-08T09:12:55.564Z,44.7
2017-07-08T09:13:57.930Z,45.5
2017-07-08T09:14:59.353Z,45.5
2017-07-08T09:16:00.798Z,45.6
2017-07-08T09:17:02.226Z,45.2
2017-07-08T09:18:03.879Z,44.6
2017-07-08T09:19:05.315Z,45.5
2017-07-08T09:20:06.881Z,47.2
2017-07-08T09:21:08.335Z,48.0
2017-07-08T09:22:09.930Z,47.3
2017-07-08T09:23:11.367Z,47.2
2017-07-08T09:24:12.798Z,46.9
2017-07-08T09:25:14.356Z,47.8
2017-07-08T09:26:15.847Z,48.1
2017-07-08T09:27:17.430Z,47.2
2017-07-08T09:28:18.852Z,47.0
2017-07-08T09:29:20.344Z,47.3
2017-07-08T09:30:21.846Z,45.9
2017-07-08T09:31:23.273Z,44.7
2017-07-08T09:32:24.850Z,43.8
2017-07-08T09:33:26.339Z,44.4
2017-07-08T09:34:27.765Z,45.2
2017-07-08T09:35:29.208Z,44.7
2017-07-08T09:36:30.638Z,44.0
2017-07-08T09:37:32.075Z,44.5
2017-07-08T09:38:33.515Z,44.4
2017-07-08T09:39:35.017Z,43.2
2017-07-08T09:40:36.445Z,41.2
2017-07-08T09:41:38.058Z,41.4
2017-07-08T09:42:39.483Z,41.8
2017-07-08T09:43:40.909Z,35.7
2017-07-08T09:44:42.351Z,35.9
2017-07-08T09:45:43.779Z,38.1
2017-07-08T09:46:45.225Z,35.9
2017-07-08T09:47:46.652Z,34.4
2017-07-08T09:48:48.145Z,33.7
2017-07-08T09:49:49.621Z,34.5
2017-07-08T09:50:51.054Z,31.9
2017-07-08T09:51:52.492Z,31.4
2017-07-08T09:52:53.923Z,29.6
2017-07-08T09:53:55.354Z,28.2
2017-07-08T09:54:56.799Z,27.8
2017-07-08T09:55:58.245Z,27.9
2017-07-08T09:56:59.676Z,28.7
2017-07-08T09:58:01.148Z,28.2
2017-07-08T09:59:02.590Z,25.9
2017-07-08T10:00:04.135Z,26.7
2017-07-08T10:01:05.738Z,26.4
2017-07-08T10:02:07.175Z,26.5
2017-07-08T10:03:09.094Z,25.3
2017-07-08T10:04:10.516Z,25.3
2017-07-08T10:05:12.213Z,28.0
2017-07-08T10:06:13.651Z,27.3
2017-07-08T10:07:15.095Z,29.8
2017-07-08T10:08:16.581Z,30.3
2017-07-08T10:09:17.979Z,30.3
2017-07-08T10:10:19.416Z,30.9
2017-07-08T10:11:20.851Z,29.6
2017-07-08T10:12:22.289Z,27.8
2017-07-08T10:13:23.721Z,28.2
2017-07-08T10:14:25.162Z,27.3
2017-07-08T10:15:26.592Z,26.7
2017-07-08T10:16:28.041Z,29.2
2017-07-08T10:17:29.486Z,31.8
2017-07-08T10:18:30.942Z,28.7
2017-07-08T10:19:32.398Z,29.2
2017-07-08T10:20:33.836Z,27.7
2017-07-08T10:21:35.265Z,27.1
2017-07-08T10:22:36.700Z,30.4
2017-07-08T10:23:38.138Z,30.7
2017-07-08T10:24:39.573Z,31.2
2017-07-08T10:25:41.043Z,32.3
2017-07-08T10:26:42.471Z,29.5
2017-07-08T10:27:43.913Z,28.7
2017-07-08T10:28:45.345Z,27.7
2017-07-08T10:29:46.873Z,26.0
2017-07-08T10:30:48.302Z,25.6
2017-07-08T10:31:49.744Z,24.6
2017-07-08T10:32:51.183Z,24.9
2017-07-08T10:33:52.638Z,25.6
2017-07-08T10:34:54.130Z,25.2
2017-07-08T10:35:55.570Z,25.4
2017-07-08T10:36:57.020Z,26.3
2017-07-08T10:37:58.452Z,27.5
2017-07-08T10:38:59.891Z,27.4
2017-07-08T10:40:01.331Z,26.3
2017-07-08T10:41:02.780Z,27.4
2017-07-08T10:42:04.259Z,27.4
2017-07-08T10:43:05.715Z,27.7
2017-07-08T10:44:07.157Z,29.5
2017-07-08T10:45:08.687Z,29.0
2017-07-08T10:46:10.132Z,29.9
2017-07-08T10:47:11.561Z,28.7
2017-07-08T10:48:12.993Z,29.4
2017-07-08T10:49:14.422Z,29.9
2017-07-08T10:50:15.942Z,29.1
2017-07-08T10:51:17.374Z,30.4
2017-07-08T10:52:18.811Z,31.8
2017-07-08T10:53:20.244Z,33.1
2017-07-08T10:54:21.721Z,34.3
2017-07-08T10:55:23.232Z,33.7
2017-07-08T10:56:24.667Z,34.0
2017-07-08T10:57:26.146Z,33.3
2017-07-08T10:58:27.586Z,34.2
2017-07-08T10:59:29.098Z,34.5
2017-07-08T11:00:31.617Z,36.2
2017-07-08T11:01:33.011Z,35.6
2017-07-08T11:02:34.475Z,35.2
2017-07-08T11:03:36.003Z,35.2
2017-07-08T11:04:37.439Z,34.7
2017-07-08T11:05:38.875Z,34.1
2017-07-08T11:06:40.311Z,33.5
2017-07-08T11:07:41.754Z,33.6
2017-07-08T11:08:43.193Z,31.9
2017-07-08T11:09:44.657Z,29.0
2017-07-08T11:10:46.087Z,27.4
2017-07-08T11:11:47.563Z,26.7
2017-07-08T11:12:48.999Z,23.9
2017-07-08T11:13:50.426Z,27.6
2017-07-08T11:14:51.858Z,27.9
2017-07-08T11:15:53.298Z,29.4
2017-07-08T11:16:54.775Z,28.7
2017-07-08T11:17:56.294Z,29.1
2017-07-08T11:18:57.726Z,29.7
2017-07-08T11:19:59.197Z,31.3
2017-07-08T11:21:00.636Z,31.2
2017-07-08T11:22:02.133Z,31.6
2017-07-08T11:23:03.713Z,31.7
2017-07-08T11:24:05.146Z,33.0
2017-07-08T11:25:06.663Z,32.2
2017-07-08T11:26:08.103Z,31.9
2017-07-08T11:27:09.522Z,31.6
2017-07-08T11:28:10.948Z,32.9
2017-07-08T11:29:12.383Z,33.0
2017-07-08T11:30:13.873Z,33.1
2017-07-08T11:31:15.309Z,33.5
2017-07-08T11:32:16.757Z,33.4
2017-07-08T11:33:18.185Z,34.1
2017-07-08T11:34:19.633Z,33.3
2017-07-08T11:35:21.077Z,33.6
2017-07-08T11:36:22.526Z,32.9
2017-07-08T11:37:23.974Z,31.7
2017-07-08T11:38:25.605Z,31.2
2017-07-08T11:39:27.052Z,29.5
2017-07-08T11:40:28.776Z,29.6
2017-07-08T11:41:30.297Z,30.5
2017-07-08T11:42:31.732Z,31.6
2017-07-08T11:43:33.238Z,30.7
2017-07-08T11:44:34.697Z,30.7
2017-07-08T11:45:36.142Z,29.8
2017-07-08T11:46:37.565Z,29.2
2017-07-08T11:47:39.018Z,28.9
2017-07-08T11:48:40.442Z,26.6
2017-07-08T11:49:41.880Z,24.7
2017-07-08T11:50:43.356Z,23.0
2017-07-08T11:51:44.788Z,23.8
2017-07-08T11:52:46.212Z,27.5
2017-07-08T11:53:47.686Z,28.7
2017-07-08T11:54:49.116Z,30.4
2017-07-08T11:55:50.578Z,30.1
2017-07-08T11:56:52.009Z,31.4
2017-07-08T11:57:53.487Z,31.8
2017-07-08T11:58:54.976Z,31.7
2017-07-08T11:59:56.410Z,32.0
2017-07-08T12:00:57.850Z,31.8
2017-07-08T12:01:59.280Z,31.9
2017-07-08T12:03:00.735Z,31.8
2017-07-08T12:04:02.170Z,31.4
2017-07-08T12:05:03.719Z,31.0
2017-07-08T12:06:05.339Z,29.6
2017-07-08T12:07:06.595Z,28.1
2017-07-08T12:08:08.046Z,30.1
2017-07-08T12:09:09.465Z,29.5
2017-07-08T12:10:11.102Z,28.7
2017-07-08T12:11:12.521Z,29.9
2017-07-08T12:12:13.961Z,30.3
2017-07-08T12:13:15.400Z,30.3
2017-07-08T12:14:16.832Z,28.7
2017-07-08T12:15:18.256Z,26.1
2017-07-08T12:16:19.699Z,23.7
2017-07-08T12:17:21.161Z,21.6
2017-07-08T12:18:22.604Z,21.4
2017-07-08T12:19:24.046Z,20.9
2017-07-08T12:20:25.473Z,21.8
2017-07-08T12:21:26.909Z,23.2
2017-07-08T12:22:28.351Z,22.1
2017-07-08T12:23:29.796Z,21.9
2017-07-08T12:24:31.228Z,24.1
2017-07-08T12:25:32.692Z,25.1
2017-07-08T12:26:34.153Z,23.6
2017-07-08T12:27:35.590Z,21.3
2017-07-08T12:28:37.016Z,18.8
2017-07-08T12:29:38.450Z,18.9
2017-07-08T12:30:39.881Z,19.5
2017-07-08T12:31:41.317Z,21.1
2017-07-08T12:32:42.744Z,19.8
2017-07-08T12:33:44.184Z,19.4
2017-07-08T12:34:45.611Z,19.4
2017-07-08T12:35:47.056Z,20.1
2017-07-08T12:36:48.496Z,22.3
2017-07-08T12:37:49.945Z,25.2
2017-07-08T12:38:51.388Z,23.7
2017-07-08T12:39:52.821Z,21.1
2017-07-08T12:40:54.254Z,21.3
2017-07-08T12:41:55.695Z,20.9
2017-07-08T12:42:57.136Z,19.5
2017-07-08T12:43:58.581Z,20.0
2017-07-08T12:45:00.017Z,21.3
2017-07-08T12:46:01.488Z,23.3
2017-07-08T12:47:02.932Z,24.0
2017-07-08T12:48:04.445Z,24.7
2017-07-08T12:49:05.886Z,23.3
2017-07-08T12:50:07.323Z,24.4
2017-07-08T12:51:08.775Z,22.0
2017-07-08T12:52:10.249Z,24.8
2017-07-08T12:53:11.736Z,24.2
2017-07-08T12:54:13.179Z,23.1
2017-07-08T12:55:14.650Z,22.9
2017-07-08T12:56:16.105Z,23.9
2017-07-08T12:57:17.563Z,26.4
2017-07-08T12:58:19.038Z,25.2
2017-07-08T12:59:20.516Z,25.2
2017-07-08T13:00:21.947Z,25.5
2017-07-08T13:01:23.431Z,25.5
2017-07-08T13:02:24.872Z,24.3
2017-07-08T13:03:26.317Z,21.8
2017-07-08T13:04:27.759Z,23.1
2017-07-08T13:05:29.242Z,24.1
2017-07-08T13:06:30.676Z,24.7
2017-07-08T13:07:32.115Z,24.2
2017-07-08T13:08:33.567Z,24.1
2017-07-08T13:09:35.019Z,23.3
2017-07-08T13:10:36.464Z,24.6
2017-07-08T13:11:37.914Z,24.0
2017-07-08T13:12:39.359Z,23.5
2017-07-08T13:13:40.811Z,23.3
2017-07-08T13:14:42.295Z,25.5
2017-07-08T13:15:43.738Z,28.3
2017-07-08T13:16:45.175Z,27.3
2017-07-08T13:17:46.629Z,30.3
2017-07-08T13:18:48.063Z,30.7
2017-07-08T13:19:49.526Z,30.7
2017-07-08T13:20:50.985Z,30.9
2017-07-08T13:21:52.410Z,30.7
2017-07-08T13:22:53.853Z,30.5
2017-07-08T13:23:55.286Z,28.7
2017-07-08T13:24:56.718Z,30.3
2017-07-08T13:25:58.165Z,29.5
2017-07-08T13:27:00.011Z,29.2
2017-07-08T13:28:01.444Z,29.8
2017-07-08T13:29:02.883Z,31.5
2017-07-08T13:30:04.450Z,33.0
2017-07-08T13:31:05.910Z,31.6
2017-07-08T13:32:07.401Z,31.4
2017-07-08T13:33:08.862Z,31.7
2017-07-08T13:34:10.290Z,32.6
2017-07-08T13:35:11.773Z,32.1
2017-07-08T13:36:13.222Z,31.8
2017-07-08T13:37:14.733Z,31.7
2017-07-08T13:38:16.193Z,31.4